sensor_id;sensor_type;location;lat;lon;timestamp;temperature;humidity
51902;DHT22;37929;53.218;6.548;2022-11-15T00:00:54;8.70;99.90
51902;DHT22;37929;53.218;6.548;2022-11-15T00:03:25;8.20;99.90
51902;DHT22;37929;53.218;6.548;2022-11-15T00:05:54;8.20;99.90
51902;DHT22;37929;53.218;6.548;2022-11-15T00:08:20;8.20;99.90
51902;DHT22;37929;53.218;6.548;2022-11-15T00:11:03;9.20;99.90
51902;DHT22;37929;53.218;6.548;2022-11-15T00:13:30;8.20;99.90
51902;DHT22;37929;53.218;6.548;2022-11-15T00:16:00;8.20;99.90
51902;DHT22;37929;53.218;6.548;2022-11-15T00:18:32;8.10;99.90
51902;DHT22;37929;53.218;6.548;2022-11-15T00:21:04;8.70;99.90
51902;DHT22;37929;53.218;6.548;2022-11-15T00:23:32;8.90;99.90
51902;DHT22;37929;53.218;6.548;2022-11-15T00:26:01;8.00;99.90
51902;DHT22;37929;53.218;6.548;2022-11-15T00:28:33;8.70;99.90
51902;DHT22;37929;53.218;6.548;2022-11-15T00:31:04;8.40;99.90
51902;DHT22;37929;53.218;6.548;2022-11-15T00:33:30;8.00;99.90
51902;DHT22;37929;53.218;6.548;2022-11-15T00:36:01;7.90;99.90
51902;DHT22;37929;53.218;6.548;2022-11-15T00:38:30;7.90;99.90
51902;DHT22;37929;53.218;6.548;2022-11-15T00:41:00;7.50;99.90
51902;DHT22;37929;53.218;6.548;2022-11-15T00:43:29;7.80;99.90
51902;DHT22;37929;53.218;6.548;2022-11-15T00:45:55;9.10;99.90
51902;DHT22;37929;53.218;6.548;2022-11-15T00:48:21;7.40;99.90
51902;DHT22;37929;53.218;6.548;2022-11-15T00:50:51;7.90;99.90
51902;DHT22;37929;53.218;6.548;2022-11-15T00:53:17;7.80;99.90
51902;DHT22;37929;53.218;6.548;2022-11-15T00:55:46;7.90;99.90
51902;DHT22;37929;53.218;6.548;2022-11-15T00:58:12;7.80;99.90
51902;DHT22;37929;53.218;6.548;2022-11-15T01:00:38;7.80;99.90
51902;DHT22;37929;53.218;6.548;2022-11-15T01:03:03;7.80;99.90
51902;DHT22;37929;53.218;6.548;2022-11-15T01:05:29;7.80;99.90
51902;DHT22;37929;53.218;6.548;2022-11-15T01:07:55;7.80;99.90
51902;DHT22;37929;53.218;6.548;2022-11-15T01:10:27;8.00;99.90
51902;DHT22;37929;53.218;6.548;2022-11-15T01:12:52;8.00;99.90
51902;DHT22;37929;53.218;6.548;2022-11-15T01:15:18;7.80;99.90
51902;DHT22;37929;53.218;6.548;2022-11-15T01:17:44;8.20;99.90
51902;DHT22;37929;53.218;6.548;2022-11-15T01:20:10;7.80;99.90
51902;DHT22;37929;53.218;6.548;2022-11-15T01:22:36;7.80;99.90
51902;DHT22;37929;53.218;6.548;2022-11-15T01:25:02;8.30;99.90
51902;DHT22;37929;53.218;6.548;2022-11-15T01:27:28;7.80;99.90
51902;DHT22;37929;53.218;6.548;2022-11-15T01:29:54;7.80;99.90
51902;DHT22;37929;53.218;6.548;2022-11-15T01:32:22;7.70;99.90
51902;DHT22;37929;53.218;6.548;2022-11-15T01:34:48;7.70;99.90
51902;DHT22;37929;53.218;6.548;2022-11-15T01:37:14;7.80;99.90
51902;DHT22;37929;53.218;6.548;2022-11-15T01:39:42;7.70;99.90
51902;DHT22;37929;53.218;6.548;2022-11-15T01:42:12;7.70;99.90
51902;DHT22;37929;53.218;6.548;2022-11-15T01:44:49;7.70;99.90
51902;DHT22;37929;53.218;6.548;2022-11-15T01:52:19;7.60;99.90
51902;DHT22;37929;53.218;6.548;2022-11-15T01:54:48;7.60;99.90
51902;DHT22;37929;53.218;6.548;2022-11-15T01:57:15;7.60;99.90
51902;DHT22;37929;53.218;6.548;2022-11-15T01:59:45;7.90;99.90
51902;DHT22;37929;53.218;6.548;2022-11-15T02:02:12;7.60;99.90
51902;DHT22;37929;53.218;6.548;2022-11-15T02:04:45;7.50;99.90
51902;DHT22;37929;53.218;6.548;2022-11-15T02:07:15;7.60;99.90
51902;DHT22;37929;53.218;6.548;2022-11-15T02:09:45;6.70;99.90
51902;DHT22;37929;53.218;6.548;2022-11-15T02:12:18;7.50;99.90
51902;DHT22;37929;53.218;6.548;2022-11-15T02:14:48;7.80;99.90
51902;DHT22;37929;53.218;6.548;2022-11-15T02:25:38;7.50;99.90
51902;DHT22;37929;53.218;6.548;2022-11-15T02:28:34;7.40;99.90
51902;DHT22;37929;53.218;6.548;2022-11-15T02:40:23;7.40;99.90
51902;DHT22;37929;53.218;6.548;2022-11-15T02:43:07;7.80;99.90
51902;DHT22;37929;53.218;6.548;2022-11-15T02:48:41;7.50;99.90
51902;DHT22;37929;53.218;6.548;2022-11-15T02:51:08;7.40;99.90
51902;DHT22;37929;53.218;6.548;2022-11-15T02:53:37;7.90;99.90
51902;DHT22;37929;53.218;6.548;2022-11-15T02:56:03;7.40;99.90
51902;DHT22;37929;53.218;6.548;2022-11-15T03:07:18;7.40;99.90
51902;DHT22;37929;53.218;6.548;2022-11-15T03:10:09;7.40;99.90
51902;DHT22;37929;53.218;6.548;2022-11-15T03:12:48;7.40;99.90
51902;DHT22;37929;53.218;6.548;2022-11-15T03:15:22;7.40;99.90
51902;DHT22;37929;53.218;6.548;2022-11-15T03:17:55;7.50;99.90
51902;DHT22;37929;53.218;6.548;2022-11-15T03:20:24;7.40;99.90
51902;DHT22;37929;53.218;6.548;2022-11-15T03:22:53;7.50;99.90
51902;DHT22;37929;53.218;6.548;2022-11-15T03:25:23;8.00;99.90
51902;DHT22;37929;53.218;6.548;2022-11-15T03:27:52;7.50;99.90
51902;DHT22;37929;53.218;6.548;2022-11-15T03:30:20;7.50;99.90
51902;DHT22;37929;53.218;6.548;2022-11-15T03:33:10;7.60;99.90
51902;DHT22;37929;53.218;6.548;2022-11-15T03:35:43;7.60;99.90
51902;DHT22;37929;53.218;6.548;2022-11-15T03:41:04;7.60;99.90
51902;DHT22;37929;53.218;6.548;2022-11-15T03:44:10;7.60;99.90
51902;DHT22;37929;53.218;6.548;2022-11-15T03:46:54;7.60;99.90
51902;DHT22;37929;53.218;6.548;2022-11-15T03:49:27;7.60;99.90
51902;DHT22;37929;53.218;6.548;2022-11-15T03:51:57;7.80;99.90
51902;DHT22;37929;53.218;6.548;2022-11-15T03:54:24;7.70;99.90
51902;DHT22;37929;53.218;6.548;2022-11-15T03:56:50;7.70;99.90
51902;DHT22;37929;53.218;6.548;2022-11-15T03:59:15;7.70;99.90
51902;DHT22;37929;53.218;6.548;2022-11-15T04:01:44;7.70;99.90
51902;DHT22;37929;53.218;6.548;2022-11-15T04:04:10;7.80;99.90
51902;DHT22;37929;53.218;6.548;2022-11-15T04:06:36;7.80;99.90
51902;DHT22;37929;53.218;6.548;2022-11-15T04:09:08;7.80;99.90
51902;DHT22;37929;53.218;6.548;2022-11-15T04:11:33;8.00;99.90
51902;DHT22;37929;53.218;6.548;2022-11-15T04:13:59;7.90;99.90
51902;DHT22;37929;53.218;6.548;2022-11-15T04:16:25;7.90;99.90
51902;DHT22;37929;53.218;6.548;2022-11-15T04:18:51;7.90;99.90
51902;DHT22;37929;53.218;6.548;2022-11-15T04:21:36;7.90;99.90
51902;DHT22;37929;53.218;6.548;2022-11-15T04:24:20;8.00;99.90
51902;DHT22;37929;53.218;6.548;2022-11-15T04:26:46;7.90;99.90
51902;DHT22;37929;53.218;6.548;2022-11-15T04:29:12;8.00;99.90
51902;DHT22;37929;53.218;6.548;2022-11-15T04:31:57;7.90;99.90
51902;DHT22;37929;53.218;6.548;2022-11-15T04:34:22;7.90;99.90
51902;DHT22;37929;53.218;6.548;2022-11-15T04:36:48;8.60;99.90
51902;DHT22;37929;53.218;6.548;2022-11-15T04:39:32;8.00;99.90
51902;DHT22;37929;53.218;6.548;2022-11-15T04:42:00;8.20;99.90
51902;DHT22;37929;53.218;6.548;2022-11-15T04:44:26;8.00;99.90
51902;DHT22;37929;53.218;6.548;2022-11-15T04:46:52;8.60;99.90
51902;DHT22;37929;53.218;6.548;2022-11-15T04:49:17;8.10;99.90
51902;DHT22;37929;53.218;6.548;2022-11-15T04:51:44;8.10;99.90
51902;DHT22;37929;53.218;6.548;2022-11-15T04:54:10;8.00;99.90
51902;DHT22;37929;53.218;6.548;2022-11-15T04:56:35;8.10;99.90
51902;DHT22;37929;53.218;6.548;2022-11-15T04:59:01;8.10;99.90
51902;DHT22;37929;53.218;6.548;2022-11-15T05:01:27;8.10;99.90
51902;DHT22;37929;53.218;6.548;2022-11-15T05:03:55;8.10;99.90
51902;DHT22;37929;53.218;6.548;2022-11-15T05:06:40;8.60;99.90
51902;DHT22;37929;53.218;6.548;2022-11-15T05:09:05;8.60;99.90
51902;DHT22;37929;53.218;6.548;2022-11-15T05:11:31;8.20;99.90
51902;DHT22;37929;53.218;6.548;2022-11-15T05:13:57;8.20;99.90
51902;DHT22;37929;53.218;6.548;2022-11-15T05:16:23;8.20;99.90
51902;DHT22;37929;53.218;6.548;2022-11-15T05:18:53;8.20;99.90
51902;DHT22;37929;53.218;6.548;2022-11-15T05:21:19;8.40;99.90
51902;DHT22;37929;53.218;6.548;2022-11-15T05:23:45;8.20;99.90
51902;DHT22;37929;53.218;6.548;2022-11-15T05:26:11;8.30;99.90
51902;DHT22;37929;53.218;6.548;2022-11-15T05:28:37;8.30;99.90
51902;DHT22;37929;53.218;6.548;2022-11-15T05:31:09;8.60;99.90
51902;DHT22;37929;53.218;6.548;2022-11-15T05:33:39;8.30;99.90
51902;DHT22;37929;53.218;6.548;2022-11-15T05:38:33;8.20;99.90
51902;DHT22;37929;53.218;6.548;2022-11-15T05:41:00;8.10;99.90
51902;DHT22;37929;53.218;6.548;2022-11-15T05:43:27;8.70;99.90
51902;DHT22;37929;53.218;6.548;2022-11-15T05:45:55;8.40;99.90
51902;DHT22;37929;53.218;6.548;2022-11-15T05:48:22;8.40;99.90
51902;DHT22;37929;53.218;6.548;2022-11-15T05:50:48;8.40;99.90
51902;DHT22;37929;53.218;6.548;2022-11-15T05:53:16;8.50;99.90
51902;DHT22;37929;53.218;6.548;2022-11-15T05:55:43;8.70;99.90
51902;DHT22;37929;53.218;6.548;2022-11-15T05:58:26;8.50;99.90
51902;DHT22;37929;53.218;6.548;2022-11-15T06:00:52;9.00;99.90
51902;DHT22;37929;53.218;6.548;2022-11-15T06:03:19;8.60;99.90
51902;DHT22;37929;53.218;6.548;2022-11-15T06:05:44;9.00;99.90
51902;DHT22;37929;53.218;6.548;2022-11-15T06:08:10;8.70;99.90
51902;DHT22;37929;53.218;6.548;2022-11-15T06:10:36;8.70;99.90
51902;DHT22;37929;53.218;6.548;2022-11-15T06:13:03;8.70;99.90
51902;DHT22;37929;53.218;6.548;2022-11-15T06:15:29;8.80;99.90
51902;DHT22;37929;53.218;6.548;2022-11-15T06:17:59;8.80;99.90
51902;DHT22;37929;53.218;6.548;2022-11-15T06:20:28;8.80;99.90
51902;DHT22;37929;53.218;6.548;2022-11-15T06:23:02;8.80;99.90
51902;DHT22;37929;53.218;6.548;2022-11-15T06:25:30;8.90;99.90
51902;DHT22;37929;53.218;6.548;2022-11-15T06:27:59;8.90;99.90
51902;DHT22;37929;53.218;6.548;2022-11-15T06:30:33;8.90;99.90
51902;DHT22;37929;53.218;6.548;2022-11-15T06:33:04;9.00;99.90
51902;DHT22;37929;53.218;6.548;2022-11-15T06:35:32;9.00;99.90
51902;DHT22;37929;53.218;6.548;2022-11-15T06:38:03;9.30;99.90
51902;DHT22;37929;53.218;6.548;2022-11-15T06:40:50;9.40;99.90
51902;DHT22;37929;53.218;6.548;2022-11-15T06:43:19;9.10;99.90
51902;DHT22;37929;53.218;6.548;2022-11-15T06:45:45;9.30;99.90
51902;DHT22;37929;53.218;6.548;2022-11-15T06:48:10;9.20;99.90
51902;DHT22;37929;53.218;6.548;2022-11-15T06:50:36;9.20;99.90
51902;DHT22;37929;53.218;6.548;2022-11-15T06:53:05;9.30;99.90
51902;DHT22;37929;53.218;6.548;2022-11-15T06:55:34;9.30;99.90
51902;DHT22;37929;53.218;6.548;2022-11-15T06:57:59;9.40;99.90
51902;DHT22;37929;53.218;6.548;2022-11-15T07:00:25;9.40;99.90
51902;DHT22;37929;53.218;6.548;2022-11-15T07:02:51;9.40;99.90
51902;DHT22;37929;53.218;6.548;2022-11-15T07:05:17;9.50;99.90
51902;DHT22;37929;53.218;6.548;2022-11-15T07:07:43;9.60;99.90
51902;DHT22;37929;53.218;6.548;2022-11-15T07:10:16;9.50;99.90
51902;DHT22;37929;53.218;6.548;2022-11-15T07:12:51;9.80;99.90
51902;DHT22;37929;53.218;6.548;2022-11-15T07:15:22;9.80;99.90
51902;DHT22;37929;53.218;6.548;2022-11-15T07:17:48;9.00;99.90
51902;DHT22;37929;53.218;6.548;2022-11-15T07:20:15;9.70;99.90
51902;DHT22;37929;53.218;6.548;2022-11-15T07:22:44;9.70;99.90
51902;DHT22;37929;53.218;6.548;2022-11-15T07:25:13;10.20;99.90
51902;DHT22;37929;53.218;6.548;2022-11-15T07:27:41;9.80;99.90
51902;DHT22;37929;53.218;6.548;2022-11-15T07:30:07;9.80;99.90
51902;DHT22;37929;53.218;6.548;2022-11-15T07:32:34;9.80;99.90
51902;DHT22;37929;53.218;6.548;2022-11-15T07:35:00;9.90;99.90
51902;DHT22;37929;53.218;6.548;2022-11-15T07:37:25;9.90;99.90
51902;DHT22;37929;53.218;6.548;2022-11-15T07:39:51;9.90;99.90
51902;DHT22;37929;53.218;6.548;2022-11-15T07:42:17;9.90;99.90
51902;DHT22;37929;53.218;6.548;2022-11-15T07:45:01;10.60;99.90
51902;DHT22;37929;53.218;6.548;2022-11-15T07:47:29;10.00;99.90
51902;DHT22;37929;53.218;6.548;2022-11-15T07:49:58;10.00;99.90
51902;DHT22;37929;53.218;6.548;2022-11-15T07:52:30;10.00;99.90
51902;DHT22;37929;53.218;6.548;2022-11-15T07:54:56;10.10;99.90
51902;DHT22;37929;53.218;6.548;2022-11-15T07:57:21;10.10;99.90
51902;DHT22;37929;53.218;6.548;2022-11-15T07:59:47;10.10;99.90
51902;DHT22;37929;53.218;6.548;2022-11-15T08:02:13;10.10;99.90
51902;DHT22;37929;53.218;6.548;2022-11-15T08:04:39;10.20;99.90
51902;DHT22;37929;53.218;6.548;2022-11-15T08:07:04;10.20;99.90
51902;DHT22;37929;53.218;6.548;2022-11-15T08:09:30;10.40;99.90
51902;DHT22;37929;53.218;6.548;2022-11-15T08:11:56;10.20;99.90
51902;DHT22;37929;53.218;6.548;2022-11-15T08:14:22;10.30;99.90
51902;DHT22;37929;53.218;6.548;2022-11-15T08:16:48;10.30;99.90
51902;DHT22;37929;53.218;6.548;2022-11-15T08:19:13;10.40;99.90
51902;DHT22;37929;53.218;6.548;2022-11-15T08:21:39;10.40;99.90
51902;DHT22;37929;53.218;6.548;2022-11-15T08:24:05;10.40;99.90
51902;DHT22;37929;53.218;6.548;2022-11-15T08:26:32;10.50;99.90
51902;DHT22;37929;53.218;6.548;2022-11-15T08:29:00;10.90;99.90
51902;DHT22;37929;53.218;6.548;2022-11-15T08:31:26;10.50;99.90
51902;DHT22;37929;53.218;6.548;2022-11-15T08:33:52;10.60;99.90
51902;DHT22;37929;53.218;6.548;2022-11-15T08:36:18;10.90;99.90
51902;DHT22;37929;53.218;6.548;2022-11-15T08:38:44;10.60;99.90
51902;DHT22;37929;53.218;6.548;2022-11-15T08:41:13;10.70;99.90
51902;DHT22;37929;53.218;6.548;2022-11-15T08:43:40;10.70;99.90
51902;DHT22;37929;53.218;6.548;2022-11-15T08:46:07;10.70;99.90
51902;DHT22;37929;53.218;6.548;2022-11-15T08:48:33;10.80;99.90
51902;DHT22;37929;53.218;6.548;2022-11-15T08:51:02;10.80;99.90
51902;DHT22;37929;53.218;6.548;2022-11-15T08:53:28;10.80;99.90
51902;DHT22;37929;53.218;6.548;2022-11-15T08:55:57;10.80;99.90
51902;DHT22;37929;53.218;6.548;2022-11-15T08:58:24;11.10;99.90
51902;DHT22;37929;53.218;6.548;2022-11-15T09:00:49;10.80;99.90
51902;DHT22;37929;53.218;6.548;2022-11-15T09:03:15;10.90;99.90
51902;DHT22;37929;53.218;6.548;2022-11-15T09:05:41;11.00;99.90
51902;DHT22;37929;53.218;6.548;2022-11-15T09:08:14;11.00;99.90
51902;DHT22;37929;53.218;6.548;2022-11-15T09:10:42;11.50;99.90
51902;DHT22;37929;53.218;6.548;2022-11-15T09:13:08;11.00;99.90
51902;DHT22;37929;53.218;6.548;2022-11-15T09:15:34;11.10;99.90
51902;DHT22;37929;53.218;6.548;2022-11-15T09:17:59;11.10;99.90
51902;DHT22;37929;53.218;6.548;2022-11-15T09:20:29;11.20;99.90
51902;DHT22;37929;53.218;6.548;2022-11-15T09:22:54;11.20;99.90
51902;DHT22;37929;53.218;6.548;2022-11-15T09:25:24;11.20;99.90
51902;DHT22;37929;53.218;6.548;2022-11-15T09:27:53;11.70;99.90
51902;DHT22;37929;53.218;6.548;2022-11-15T09:30:18;11.50;99.90
51902;DHT22;37929;53.218;6.548;2022-11-15T09:32:44;11.20;99.90
51902;DHT22;37929;53.218;6.548;2022-11-15T09:35:10;11.30;99.90
51902;DHT22;37929;53.218;6.548;2022-11-15T09:37:36;11.30;99.90
51902;DHT22;37929;53.218;6.548;2022-11-15T09:40:02;11.60;99.90
51902;DHT22;37929;53.218;6.548;2022-11-15T09:48:29;11.40;99.90
51902;DHT22;37929;53.218;6.548;2022-11-15T09:51:06;11.40;99.90
51902;DHT22;37929;53.218;6.548;2022-11-15T09:53:49;11.40;99.90
51902;DHT22;37929;53.218;6.548;2022-11-15T09:56:20;12.00;99.90
51902;DHT22;37929;53.218;6.548;2022-11-15T10:04:34;11.50;99.90
51902;DHT22;37929;53.218;6.548;2022-11-15T10:12:19;11.50;99.90
51902;DHT22;37929;53.218;6.548;2022-11-15T10:14:50;11.80;99.90
51902;DHT22;37929;53.218;6.548;2022-11-15T10:22:43;11.50;99.90
51902;DHT22;37929;53.218;6.548;2022-11-15T10:25:12;11.20;99.90
51902;DHT22;37929;53.218;6.548;2022-11-15T10:27:40;11.50;99.90
51902;DHT22;37929;53.218;6.548;2022-11-15T10:30:20;11.60;99.90
51902;DHT22;37929;53.218;6.548;2022-11-15T10:32:49;11.60;99.90
51902;DHT22;37929;53.218;6.548;2022-11-15T10:35:30;11.60;99.90
51902;DHT22;37929;53.218;6.548;2022-11-15T10:38:11;11.60;99.90
51902;DHT22;37929;53.218;6.548;2022-11-15T10:40:40;11.20;99.90
51902;DHT22;37929;53.218;6.548;2022-11-15T10:43:18;11.60;99.90
51902;DHT22;37929;53.218;6.548;2022-11-15T10:45:47;11.70;99.90
51902;DHT22;37929;53.218;6.548;2022-11-15T10:50:52;11.70;99.90
51902;DHT22;37929;53.218;6.548;2022-11-15T10:53:26;11.70;99.90
51902;DHT22;37929;53.218;6.548;2022-11-15T10:56:12;11.70;99.90
51902;DHT22;37929;53.218;6.548;2022-11-15T10:58:51;11.70;99.90
51902;DHT22;37929;53.218;6.548;2022-11-15T11:01:20;11.70;99.90
51902;DHT22;37929;53.218;6.548;2022-11-15T11:04:05;11.80;99.90
51902;DHT22;37929;53.218;6.548;2022-11-15T11:06:57;11.70;99.90
51902;DHT22;37929;53.218;6.548;2022-11-15T11:11:56;11.70;99.90
51902;DHT22;37929;53.218;6.548;2022-11-15T11:16:55;11.70;99.90
51902;DHT22;37929;53.218;6.548;2022-11-15T11:19:40;11.70;99.90
51902;DHT22;37929;53.218;6.548;2022-11-15T11:22:56;11.70;99.90
51902;DHT22;37929;53.218;6.548;2022-11-15T11:25:43;11.80;99.90
51902;DHT22;37929;53.218;6.548;2022-11-15T11:31:30;11.90;99.90
51902;DHT22;37929;53.218;6.548;2022-11-15T11:34:31;11.90;99.90
51902;DHT22;37929;53.218;6.548;2022-11-15T11:40:23;12.00;99.90
51902;DHT22;37929;53.218;6.548;2022-11-15T11:48:44;12.00;99.90
51902;DHT22;37929;53.218;6.548;2022-11-15T11:54:05;11.90;99.90
51902;DHT22;37929;53.218;6.548;2022-11-15T11:56:41;12.20;99.90
51902;DHT22;37929;53.218;6.548;2022-11-15T12:00:12;12.20;99.90
51902;DHT22;37929;53.218;6.548;2022-11-15T12:02:39;12.20;99.90
51902;DHT22;37929;53.218;6.548;2022-11-15T12:05:36;12.30;99.90
51902;DHT22;37929;53.218;6.548;2022-11-15T12:10:48;12.20;99.90
51902;DHT22;37929;53.218;6.548;2022-11-15T12:13:19;13.00;99.90
51902;DHT22;37929;53.218;6.548;2022-11-15T12:15:59;12.30;99.90
51902;DHT22;37929;53.218;6.548;2022-11-15T12:18:26;12.30;99.90
51902;DHT22;37929;53.218;6.548;2022-11-15T12:21:08;12.40;99.90
51902;DHT22;37929;53.218;6.548;2022-11-15T12:23:45;12.40;99.90
51902;DHT22;37929;53.218;6.548;2022-11-15T12:26:21;12.40;99.90
51902;DHT22;37929;53.218;6.548;2022-11-15T12:31:52;12.40;99.90
51902;DHT22;37929;53.218;6.548;2022-11-15T12:36:48;12.50;99.90
51902;DHT22;37929;53.218;6.548;2022-11-15T12:39:16;12.40;99.90
51902;DHT22;37929;53.218;6.548;2022-11-15T12:41:46;12.40;99.90
51902;DHT22;37929;53.218;6.548;2022-11-15T12:47:23;12.40;99.90
51902;DHT22;37929;53.218;6.548;2022-11-15T12:49:52;12.40;99.90
51902;DHT22;37929;53.218;6.548;2022-11-15T12:52:18;12.40;99.90
51902;DHT22;37929;53.218;6.548;2022-11-15T12:55:30;12.40;99.90
51902;DHT22;37929;53.218;6.548;2022-11-15T12:58:28;12.40;99.90
51902;DHT22;37929;53.218;6.548;2022-11-15T13:00:54;12.40;99.90
51902;DHT22;37929;53.218;6.548;2022-11-15T13:03:24;12.50;99.90
51902;DHT22;37929;53.218;6.548;2022-11-15T13:05:58;12.50;99.90
51902;DHT22;37929;53.218;6.548;2022-11-15T13:08:45;12.50;99.90
51902;DHT22;37929;53.218;6.548;2022-11-15T13:11:43;12.70;99.90
51902;DHT22;37929;53.218;6.548;2022-11-15T13:17:20;12.70;99.90
51902;DHT22;37929;53.218;6.548;2022-11-15T13:20:07;12.70;99.90
51902;DHT22;37929;53.218;6.548;2022-11-15T13:22:42;12.80;99.90
51902;DHT22;37929;53.218;6.548;2022-11-15T13:31:36;13.00;99.90
51902;DHT22;37929;53.218;6.548;2022-11-15T13:33:37;12.60;99.90
51902;DHT22;37929;53.218;6.548;2022-11-15T13:36:19;12.60;99.90
51902;DHT22;37929;53.218;6.548;2022-11-15T13:38:55;12.50;99.90
51902;DHT22;37929;53.218;6.548;2022-11-15T13:41:34;12.50;99.90
51902;DHT22;37929;53.218;6.548;2022-11-15T13:47:28;12.50;99.90
51902;DHT22;37929;53.218;6.548;2022-11-15T13:50:04;11.90;99.90
51902;DHT22;37929;53.218;6.548;2022-11-15T13:52:48;13.00;99.90
51902;DHT22;37929;53.218;6.548;2022-11-15T13:55:34;11.90;99.90
51902;DHT22;37929;53.218;6.548;2022-11-15T13:58:29;12.60;99.90
51902;DHT22;37929;53.218;6.548;2022-11-15T14:01:06;12.40;99.90
51902;DHT22;37929;53.218;6.548;2022-11-15T14:03:59;11.70;99.90
51902;DHT22;37929;53.218;6.548;2022-11-15T14:06:54;12.90;99.90
51902;DHT22;37929;53.218;6.548;2022-11-15T14:09:35;12.40;99.90
51902;DHT22;37929;53.218;6.548;2022-11-15T14:18:02;12.70;99.90
51902;DHT22;37929;53.218;6.548;2022-11-15T14:21:07;12.30;99.90
51902;DHT22;37929;53.218;6.548;2022-11-15T14:23:44;12.30;99.90
51902;DHT22;37929;53.218;6.548;2022-11-15T14:26:57;12.30;99.90
51902;DHT22;37929;53.218;6.548;2022-11-15T14:29:40;12.60;99.90
51902;DHT22;37929;53.218;6.548;2022-11-15T14:35:38;11.90;99.90
51902;DHT22;37929;53.218;6.548;2022-11-15T14:38:04;12.20;99.90
51902;DHT22;37929;53.218;6.548;2022-11-15T14:40:30;12.20;99.90
51902;DHT22;37929;53.218;6.548;2022-11-15T14:43:07;12.20;99.90
51902;DHT22;37929;53.218;6.548;2022-11-15T14:45:34;11.70;99.90
51902;DHT22;37929;53.218;6.548;2022-11-15T14:48:20;12.10;99.90
51902;DHT22;37929;53.218;6.548;2022-11-15T14:50:54;12.10;99.90
51902;DHT22;37929;53.218;6.548;2022-11-15T14:53:20;12.10;99.90
51902;DHT22;37929;53.218;6.548;2022-11-15T14:55:47;12.00;99.90
51902;DHT22;37929;53.218;6.548;2022-11-15T14:58:13;12.00;99.90
51902;DHT22;37929;53.218;6.548;2022-11-15T15:00:40;12.00;99.90
51902;DHT22;37929;53.218;6.548;2022-11-15T15:03:07;12.00;99.90
51902;DHT22;37929;53.218;6.548;2022-11-15T15:05:41;11.90;99.90
51902;DHT22;37929;53.218;6.548;2022-11-15T15:08:07;12.40;99.90
51902;DHT22;37929;53.218;6.548;2022-11-15T15:10:38;11.80;99.90
51902;DHT22;37929;53.218;6.548;2022-11-15T15:13:05;11.80;99.90
51902;DHT22;37929;53.218;6.548;2022-11-15T15:15:37;11.80;99.90
51902;DHT22;37929;53.218;6.548;2022-11-15T15:18:04;12.00;99.90
51902;DHT22;37929;53.218;6.548;2022-11-15T15:20:31;11.70;99.90
51902;DHT22;37929;53.218;6.548;2022-11-15T15:23:01;11.70;99.90
51902;DHT22;37929;53.218;6.548;2022-11-15T15:25:34;11.60;99.90
51902;DHT22;37929;53.218;6.548;2022-11-15T15:28:03;11.60;99.90
51902;DHT22;37929;53.218;6.548;2022-11-15T15:30:35;11.50;99.90
51902;DHT22;37929;53.218;6.548;2022-11-15T15:33:07;11.40;99.90
51902;DHT22;37929;53.218;6.548;2022-11-15T15:35:34;11.50;99.90
51902;DHT22;37929;53.218;6.548;2022-11-15T15:38:00;10.90;99.90
51902;DHT22;37929;53.218;6.548;2022-11-15T15:40:31;11.40;99.90
51902;DHT22;37929;53.218;6.548;2022-11-15T15:42:58;11.40;99.90
51902;DHT22;37929;53.218;6.548;2022-11-15T15:45:25;11.40;99.90
51902;DHT22;37929;53.218;6.548;2022-11-15T15:47:54;11.40;99.90
51902;DHT22;37929;53.218;6.548;2022-11-15T15:50:29;11.40;99.90
51902;DHT22;37929;53.218;6.548;2022-11-15T15:52:59;11.40;99.90
51902;DHT22;37929;53.218;6.548;2022-11-15T15:55:26;11.40;99.90
51902;DHT22;37929;53.218;6.548;2022-11-15T15:57:55;11.40;99.90
51902;DHT22;37929;53.218;6.548;2022-11-15T16:00:22;11.10;99.90
51902;DHT22;37929;53.218;6.548;2022-11-15T16:02:56;11.30;99.90
51902;DHT22;37929;53.218;6.548;2022-11-15T16:05:22;11.30;99.90
51902;DHT22;37929;53.218;6.548;2022-11-15T16:07:48;11.20;99.90
51902;DHT22;37929;53.218;6.548;2022-11-15T16:10:37;11.20;99.90
51902;DHT22;37929;53.218;6.548;2022-11-15T16:13:05;11.20;99.90
51902;DHT22;37929;53.218;6.548;2022-11-15T16:15:35;11.10;99.90
51902;DHT22;37929;53.218;6.548;2022-11-15T16:18:24;11.10;99.90
51902;DHT22;37929;53.218;6.548;2022-11-15T16:20:50;11.00;99.90
51902;DHT22;37929;53.218;6.548;2022-11-15T16:23:20;11.00;99.90
51902;DHT22;37929;53.218;6.548;2022-11-15T16:25:51;11.00;99.90
51902;DHT22;37929;53.218;6.548;2022-11-15T16:28:22;11.00;99.90
51902;DHT22;37929;53.218;6.548;2022-11-15T16:30:58;11.00;99.90
51902;DHT22;37929;53.218;6.548;2022-11-15T16:33:33;11.00;99.90
51902;DHT22;37929;53.218;6.548;2022-11-15T16:36:26;10.90;99.90
51902;DHT22;37929;53.218;6.548;2022-11-15T16:38:55;10.90;99.90
51902;DHT22;37929;53.218;6.548;2022-11-15T16:41:20;10.90;99.90
51902;DHT22;37929;53.218;6.548;2022-11-15T16:43:47;10.90;99.90
51902;DHT22;37929;53.218;6.548;2022-11-15T16:48:47;10.90;99.90
51902;DHT22;37929;53.218;6.548;2022-11-15T16:51:14;11.20;99.90
51902;DHT22;37929;53.218;6.548;2022-11-15T16:53:40;11.40;99.90
51902;DHT22;37929;53.218;6.548;2022-11-15T16:56:29;11.00;99.90
51902;DHT22;37929;53.218;6.548;2022-11-15T16:58:59;11.00;99.90
51902;DHT22;37929;53.218;6.548;2022-11-15T17:01:31;11.00;99.90
51902;DHT22;37929;53.218;6.548;2022-11-15T17:03:57;11.00;99.90
51902;DHT22;37929;53.218;6.548;2022-11-15T17:06:38;11.00;99.90
51902;DHT22;37929;53.218;6.548;2022-11-15T17:09:06;11.00;99.90
51902;DHT22;37929;53.218;6.548;2022-11-15T17:11:32;11.10;99.90
51902;DHT22;37929;53.218;6.548;2022-11-15T17:14:01;11.10;99.90
51902;DHT22;37929;53.218;6.548;2022-11-15T17:16:29;11.10;99.90
51902;DHT22;37929;53.218;6.548;2022-11-15T17:18:55;11.10;99.90
51902;DHT22;37929;53.218;6.548;2022-11-15T17:21:23;11.10;99.90
51902;DHT22;37929;53.218;6.548;2022-11-15T17:23:53;11.20;99.90
51902;DHT22;37929;53.218;6.548;2022-11-15T17:26:19;11.20;99.90
51902;DHT22;37929;53.218;6.548;2022-11-15T17:29:05;11.20;99.90
51902;DHT22;37929;53.218;6.548;2022-11-15T17:32:06;11.20;99.90
51902;DHT22;37929;53.218;6.548;2022-11-15T17:34:42;10.90;99.90
51902;DHT22;37929;53.218;6.548;2022-11-15T17:43:37;11.10;99.90
51902;DHT22;37929;53.218;6.548;2022-11-15T17:46:09;11.20;99.90
51902;DHT22;37929;53.218;6.548;2022-11-15T17:48:35;11.10;99.90
51902;DHT22;37929;53.218;6.548;2022-11-15T17:51:08;11.10;99.90
51902;DHT22;37929;53.218;6.548;2022-11-15T17:53:42;11.10;99.90
51902;DHT22;37929;53.218;6.548;2022-11-15T17:56:17;11.10;99.90
51902;DHT22;37929;53.218;6.548;2022-11-15T17:58:51;11.10;99.90
51902;DHT22;37929;53.218;6.548;2022-11-15T18:01:29;11.10;99.90
51902;DHT22;37929;53.218;6.548;2022-11-15T18:03:59;10.40;99.90
51902;DHT22;37929;53.218;6.548;2022-11-15T18:06:30;11.10;99.90
51902;DHT22;37929;53.218;6.548;2022-11-15T18:08:59;11.10;99.90
51902;DHT22;37929;53.218;6.548;2022-11-15T18:11:34;11.30;99.90